sensor_id;sensor_type;location;lat;lon;timestamp;pressure;altitude;pressure_sealevel;temperature;humidity
60240;BME280;46102;39.012;-7.064;2023-08-24T00:00:41;98102.88;;;30.17;33.52
60240;BME280;46102;39.012;-7.064;2023-08-24T00:02:42;98107.09;;;30.12;33.40
60240;BME280;46102;39.012;-7.064;2023-08-24T00:04:43;98103.94;;;30.10;33.65
60240;BME280;46102;39.012;-7.064;2023-08-24T00:06:44;98101.25;;;30.06;34.14
60240;BME280;46102;39.012;-7.064;2023-08-24T00:08:45;98104.06;;;30.06;34.10
60240;BME280;46102;39.012;-7.064;2023-08-24T00:10:45;98111.44;;;30.04;33.92
60240;BME280;46102;39.012;-7.064;2023-08-24T00:12:47;98115.97;;;30.01;33.81
60240;BME280;46102;39.012;-7.064;2023-08-24T00:14:48;98114.50;;;29.97;34.36
60240;BME280;46102;39.012;-7.064;2023-08-24T00:16:48;98120.41;;;29.89;33.89
60240;BME280;46102;39.012;-7.064;2023-08-24T00:18:49;98122.38;;;29.80;34.37
60240;BME280;46102;39.012;-7.064;2023-08-24T00:20:50;98116.41;;;29.78;34.49
60240;BME280;46102;39.012;-7.064;2023-08-24T00:22:51;98128.97;;;29.64;34.56
60240;BME280;46102;39.012;-7.064;2023-08-24T00:24:52;98129.00;;;29.51;34.44
60240;BME280;46102;39.012;-7.064;2023-08-24T00:26:53;98130.16;;;29.41;34.67
60240;BME280;46102;39.012;-7.064;2023-08-24T00:28:53;98126.31;;;29.35;34.17
60240;BME280;46102;39.012;-7.064;2023-08-24T00:30:54;98139.31;;;29.19;34.68
60240;BME280;46102;39.012;-7.064;2023-08-24T00:32:55;98131.78;;;29.16;34.79
60240;BME280;46102;39.012;-7.064;2023-08-24T00:34:56;98131.63;;;29.20;34.60
60240;BME280;46102;39.012;-7.064;2023-08-24T00:36:57;98130.31;;;29.12;34.27
60240;BME280;46102;39.012;-7.064;2023-08-24T00:38:58;98130.94;;;29.03;34.67
60240;BME280;46102;39.012;-7.064;2023-08-24T00:40:58;98122.00;;;29.04;34.73
60240;BME280;46102;39.012;-7.064;2023-08-24T00:43:00;98130.47;;;29.04;34.64
60240;BME280;46102;39.012;-7.064;2023-08-24T00:45:04;98124.53;;;29.02;34.53
60240;BME280;46102;39.012;-7.064;2023-08-24T00:47:05;98122.34;;;29.06;34.42
60240;BME280;46102;39.012;-7.064;2023-08-24T00:49:06;98121.03;;;29.11;34.69
60240;BME280;46102;39.012;-7.064;2023-08-24T00:51:07;98114.16;;;29.12;34.71
60240;BME280;46102;39.012;-7.064;2023-08-24T00:53:08;98127.22;;;29.06;34.96
60240;BME280;46102;39.012;-7.064;2023-08-24T00:55:10;98123.16;;;29.07;34.69
60240;BME280;46102;39.012;-7.064;2023-08-24T00:57:11;98118.19;;;29.11;34.81
60240;BME280;46102;39.012;-7.064;2023-08-24T00:59:12;98119.78;;;29.12;34.79
60240;BME280;46102;39.012;-7.064;2023-08-24T01:01:13;98134.69;;;29.13;34.93
60240;BME280;46102;39.012;-7.064;2023-08-24T01:03:15;98124.75;;;29.08;35.33
60240;BME280;46102;39.012;-7.064;2023-08-24T01:05:17;98127.22;;;29.06;35.24
60240;BME280;46102;39.012;-7.064;2023-08-24T01:07:19;98127.22;;;29.06;35.39
60240;BME280;46102;39.012;-7.064;2023-08-24T01:09:21;98123.72;;;29.02;35.14
60240;BME280;46102;39.012;-7.064;2023-08-24T01:13:46;98135.03;;;28.89;35.88
60240;BME280;46102;39.012;-7.064;2023-08-24T01:16:04;98129.38;;;28.76;35.97
60240;BME280;46102;39.012;-7.064;2023-08-24T01:18:11;98137.81;;;28.76;36.19
60240;BME280;46102;39.012;-7.064;2023-08-24T01:20:15;98135.75;;;28.64;36.22
60240;BME280;46102;39.012;-7.064;2023-08-24T01:22:32;98141.41;;;28.64;36.51
60240;BME280;46102;39.012;-7.064;2023-08-24T01:24:39;98128.66;;;28.59;36.34
60240;BME280;46102;39.012;-7.064;2023-08-24T01:26:41;98134.28;;;28.59;36.48
60240;BME280;46102;39.012;-7.064;2023-08-24T01:28:44;98136.34;;;28.59;36.25
60240;BME280;46102;39.012;-7.064;2023-08-24T01:30:45;98133.16;;;28.57;36.61
60240;BME280;46102;39.012;-7.064;2023-08-24T01:32:45;98139.72;;;28.54;36.51
60240;BME280;46102;39.012;-7.064;2023-08-24T01:34:46;98142.63;;;28.50;36.87
60240;BME280;46102;39.012;-7.064;2023-08-24T01:36:47;98135.06;;;28.47;36.66
60240;BME280;46102;39.012;-7.064;2023-08-24T01:39:07;98132.31;;;28.43;36.89
60240;BME280;46102;39.012;-7.064;2023-08-24T01:43:15;98139.66;;;28.41;36.83
60240;BME280;46102;39.012;-7.064;2023-08-24T01:45:22;98133.78;;;28.35;37.32
60240;BME280;46102;39.012;-7.064;2023-08-24T01:47:25;98138.38;;;28.29;37.28
60240;BME280;46102;39.012;-7.064;2023-08-24T01:49:26;98138.38;;;28.29;37.30
60240;BME280;46102;39.012;-7.064;2023-08-24T01:51:28;98130.28;;;28.31;37.25
60240;BME280;46102;39.012;-7.064;2023-08-24T01:53:31;98130.72;;;28.30;37.27
60240;BME280;46102;39.012;-7.064;2023-08-24T01:55:32;98139.16;;;28.30;37.56
60240;BME280;46102;39.012;-7.064;2023-08-24T01:57:33;98139.94;;;28.30;37.51
60240;BME280;46102;39.012;-7.064;2023-08-24T01:59:34;98129.66;;;28.23;37.83
60240;BME280;46102;39.012;-7.064;2023-08-24T02:01:35;98133.03;;;28.18;38.07
60240;BME280;46102;39.012;-7.064;2023-08-24T02:03:36;98133.59;;;28.13;38.26
60240;BME280;46102;39.012;-7.064;2023-08-24T02:05:39;98133.69;;;28.10;38.41
60240;BME280;46102;39.012;-7.064;2023-08-24T02:07:40;98124.66;;;28.02;38.99
60240;BME280;46102;39.012;-7.064;2023-08-24T02:09:41;98126.44;;;27.96;38.97
60240;BME280;46102;39.012;-7.064;2023-08-24T02:11:42;98122.91;;;27.92;39.23
60240;BME280;46102;39.012;-7.064;2023-08-24T02:13:42;98131.47;;;27.88;39.44
60240;BME280;46102;39.012;-7.064;2023-08-24T02:15:43;98117.38;;;27.88;39.53
60240;BME280;46102;39.012;-7.064;2023-08-24T02:17:44;98119.91;;;27.82;39.47
60240;BME280;46102;39.012;-7.064;2023-08-24T02:19:45;98120.38;;;27.81;39.41
60240;BME280;46102;39.012;-7.064;2023-08-24T02:21:45;98125.66;;;27.79;39.45
60240;BME280;46102;39.012;-7.064;2023-08-24T02:23:46;98116.41;;;27.78;39.36
60240;BME280;46102;39.012;-7.064;2023-08-24T02:25:47;98116.41;;;27.78;39.28
60240;BME280;46102;39.012;-7.064;2023-08-24T02:27:48;98116.84;;;27.77;39.09
60240;BME280;46102;39.012;-7.064;2023-08-24T02:29:49;98123.28;;;27.77;39.27
60240;BME280;46102;39.012;-7.064;2023-08-24T02:31:50;98123.38;;;27.74;39.21
60240;BME280;46102;39.012;-7.064;2023-08-24T02:33:51;98123.81;;;27.72;39.25
60240;BME280;46102;39.012;-7.064;2023-08-24T02:35:52;98115.09;;;27.67;39.09
60240;BME280;46102;39.012;-7.064;2023-08-24T02:37:53;98120.94;;;27.59;39.32
60240;BME280;46102;39.012;-7.064;2023-08-24T02:39:56;98126.75;;;27.52;39.43
60240;BME280;46102;39.012;-7.064;2023-08-24T02:41:57;98124.81;;;27.49;39.50
60240;BME280;46102;39.012;-7.064;2023-08-24T02:43:58;98126.25;;;27.41;39.67
60240;BME280;46102;39.012;-7.064;2023-08-24T02:46:02;98123.69;;;27.30;39.71
60240;BME280;46102;39.012;-7.064;2023-08-24T02:48:04;98113.91;;;27.18;40.15
60240;BME280;46102;39.012;-7.064;2023-08-24T02:50:05;98121.34;;;27.09;40.44
60240;BME280;46102;39.012;-7.064;2023-08-24T02:52:09;98118.28;;;27.03;40.58
60240;BME280;46102;39.012;-7.064;2023-08-24T02:54:10;98117.03;;;27.04;40.71
60240;BME280;46102;39.012;-7.064;2023-08-24T02:56:11;98118.28;;;27.03;40.33
60240;BME280;46102;39.012;-7.064;2023-08-24T02:58:11;98113.44;;;27.04;40.62
60240;BME280;46102;39.012;-7.064;2023-08-24T03:00:12;98112.31;;;27.01;40.50
60240;BME280;46102;39.012;-7.064;2023-08-24T03:02:14;98113.53;;;27.00;40.61
60240;BME280;46102;39.012;-7.064;2023-08-24T03:04:16;98110.38;;;26.98;40.50
60240;BME280;46102;39.012;-7.064;2023-08-24T03:06:16;98120.03;;;26.97;40.55
60240;BME280;46102;39.012;-7.064;2023-08-24T03:08:17;98116.00;;;26.98;40.66
60240;BME280;46102;39.012;-7.064;2023-08-24T03:10:18;98108.78;;;26.97;40.36
60240;BME280;46102;39.012;-7.064;2023-08-24T03:12:19;98113.25;;;26.94;40.60
60240;BME280;46102;39.012;-7.064;2023-08-24T03:14:19;98111.34;;;26.91;40.58
60240;BME280;46102;39.012;-7.064;2023-08-24T03:16:20;98119.78;;;26.91;40.93
60240;BME280;46102;39.012;-7.064;2023-08-24T03:18:22;98125.47;;;26.88;40.64
60240;BME280;46102;39.012;-7.064;2023-08-24T03:20:23;98123.53;;;26.85;40.95
60240;BME280;46102;39.012;-7.064;2023-08-24T03:22:24;98128.44;;;26.81;41.16
60240;BME280;46102;39.012;-7.064;2023-08-24T03:24:25;98128.44;;;26.81;41.17
60240;BME280;46102;39.012;-7.064;2023-08-24T03:26:27;98130.97;;;26.75;41.34
60240;BME280;46102;39.012;-7.064;2023-08-24T03:28:28;98132.75;;;26.69;41.22
60240;BME280;46102;39.012;-7.064;2023-08-24T03:30:29;98133.16;;;26.67;41.64
60240;BME280;46102;39.012;-7.064;2023-08-24T03:32:31;98132.81;;;26.65;41.45
60240;BME280;46102;39.012;-7.064;2023-08-24T03:34:32;98130.44;;;26.64;41.71
60240;BME280;46102;39.012;-7.064;2023-08-24T03:36:33;98127.97;;;26.66;41.74
60240;BME280;46102;39.012;-7.064;2023-08-24T03:38:34;98131.25;;;26.64;42.18
60240;BME280;46102;39.012;-7.064;2023-08-24T03:40:35;98120.16;;;26.57;42.11
60240;BME280;46102;39.012;-7.064;2023-08-24T03:42:36;98121.75;;;26.54;42.30
60240;BME280;46102;39.012;-7.064;2023-08-24T03:44:36;98130.66;;;26.53;42.27
60240;BME280;46102;39.012;-7.064;2023-08-24T03:46:37;98133.94;;;26.48;42.53
60240;BME280;46102;39.012;-7.064;2023-08-24T03:48:38;98137.38;;;26.39;42.53
60240;BME280;46102;39.012;-7.064;2023-08-24T03:50:39;98140.25;;;26.35;42.45
60240;BME280;46102;39.012;-7.064;2023-08-24T03:52:40;98138.81;;;26.27;42.96
60240;BME280;46102;39.012;-7.064;2023-08-24T03:54:41;98140.19;;;26.19;42.64
60240;BME280;46102;39.012;-7.064;2023-08-24T03:56:42;98141.19;;;26.09;42.78
60240;BME280;46102;39.012;-7.064;2023-08-24T03:58:42;98138.88;;;26.04;43.25
60240;BME280;46102;39.012;-7.064;2023-08-24T04:00:44;98135.34;;;26.00;43.16
60240;BME280;46102;39.012;-7.064;2023-08-24T04:02:45;98138.56;;;25.98;43.55
60240;BME280;46102;39.012;-7.064;2023-08-24T04:04:54;98137.38;;;25.99;43.26
60240;BME280;46102;39.012;-7.064;2023-08-24T04:06:54;98141.38;;;25.98;43.28
60240;BME280;46102;39.012;-7.064;2023-08-24T04:08:56;98138.72;;;25.91;43.86
60240;BME280;46102;39.012;-7.064;2023-08-24T04:10:57;98140.75;;;25.90;43.75
60240;BME280;46102;39.012;-7.064;2023-08-24T04:12:58;98147.50;;;25.93;43.90
60240;BME280;46102;39.012;-7.064;2023-08-24T04:14:59;98137.06;;;25.93;43.63
60240;BME280;46102;39.012;-7.064;2023-08-24T04:17:00;98146.38;;;25.87;44.06
60240;BME280;46102;39.012;-7.064;2023-08-24T04:19:01;98150.03;;;25.87;43.76
60240;BME280;46102;39.012;-7.064;2023-08-24T04:21:02;98153.63;;;25.88;44.21
60240;BME280;46102;39.012;-7.064;2023-08-24T04:23:03;98154.41;;;25.88;43.81
60240;BME280;46102;39.012;-7.064;2023-08-24T04:25:04;98154.00;;;25.90;43.85
60240;BME280;46102;39.012;-7.064;2023-08-24T04:27:06;98157.59;;;25.90;43.98
60240;BME280;46102;39.012;-7.064;2023-08-24T04:29:07;98154.41;;;25.88;44.29
60240;BME280;46102;39.012;-7.064;2023-08-24T04:31:08;98154.09;;;25.83;43.91
60240;BME280;46102;39.012;-7.064;2023-08-24T04:33:08;98156.09;;;25.82;43.89
60240;BME280;46102;39.012;-7.064;2023-08-24T04:35:09;98156.19;;;25.79;43.71
60240;BME280;46102;39.012;-7.064;2023-08-24T04:37:10;98164.25;;;25.76;43.56
60240;BME280;46102;39.012;-7.064;2023-08-24T04:39:11;98161.84;;;25.75;43.89
60240;BME280;46102;39.012;-7.064;2023-08-24T04:41:12;98168.81;;;25.67;43.83
60240;BME280;46102;39.012;-7.064;2023-08-24T04:43:12;98172.13;;;25.62;43.77
60240;BME280;46102;39.012;-7.064;2023-08-24T04:45:13;98168.66;;;25.54;44.12
60240;BME280;46102;39.012;-7.064;2023-08-24T04:47:15;98176.38;;;25.46;44.41
60240;BME280;46102;39.012;-7.064;2023-08-24T04:49:15;98179.63;;;25.45;44.27
60240;BME280;46102;39.012;-7.064;2023-08-24T04:51:16;98182.44;;;25.45;44.82
60240;BME280;46102;39.012;-7.064;2023-08-24T04:53:18;98183.28;;;25.42;44.73
60240;BME280;46102;39.012;-7.064;2023-08-24T04:55:19;98188.19;;;25.38;44.24
60240;BME280;46102;39.012;-7.064;2023-08-24T04:57:20;98181.81;;;25.33;44.53
60240;BME280;46102;39.012;-7.064;2023-08-24T04:59:20;98195.91;;;25.30;44.77
60240;BME280;46102;39.012;-7.064;2023-08-24T05:01:21;98193.13;;;25.26;44.83
60240;BME280;46102;39.012;-7.064;2023-08-24T05:03:22;98194.41;;;25.22;44.54
60240;BME280;46102;39.012;-7.064;2023-08-24T05:05:23;98188.00;;;25.21;44.80
60240;BME280;46102;39.012;-7.064;2023-08-24T05:07:23;98198.81;;;25.23;44.91
60240;BME280;46102;39.012;-7.064;2023-08-24T05:09:24;98191.59;;;25.22;44.79
60240;BME280;46102;39.012;-7.064;2023-08-24T05:11:27;98192.47;;;25.19;44.67
60240;BME280;46102;39.012;-7.064;2023-08-24T05:13:29;98191.63;;;25.18;44.71
60240;BME280;46102;39.012;-7.064;2023-08-24T05:15:30;98198.91;;;25.16;45.25
60240;BME280;46102;39.012;-7.064;2023-08-24T05:17:31;98210.13;;;25.16;45.22
60240;BME280;46102;39.012;-7.064;2023-08-24T05:19:32;98200.88;;;25.15;45.00
60240;BME280;46102;39.012;-7.064;2023-08-24T05:21:33;98208.97;;;25.13;44.92
60240;BME280;46102;39.012;-7.064;2023-08-24T05:23:34;98210.94;;;25.12;44.37
60240;BME280;46102;39.012;-7.064;2023-08-24T05:25:35;98212.22;;;25.08;44.43
60240;BME280;46102;39.012;-7.064;2023-08-24T05:27:37;98203.81;;;25.08;44.68
60240;BME280;46102;39.012;-7.064;2023-08-24T05:29:38;98211.91;;;25.02;44.49
60240;BME280;46102;39.012;-7.064;2023-08-24T05:31:38;98206.41;;;24.95;44.83
60240;BME280;46102;39.012;-7.064;2023-08-24T05:33:39;98214.44;;;24.93;44.67
60240;BME280;46102;39.012;-7.064;2023-08-24T05:35:40;98214.06;;;24.91;45.09
60240;BME280;46102;39.012;-7.064;2023-08-24T05:37:41;98215.34;;;24.86;45.24
60240;BME280;46102;39.012;-7.064;2023-08-24T05:39:41;98223.78;;;24.83;44.88
60240;BME280;46102;39.012;-7.064;2023-08-24T05:41:42;98218.94;;;24.87;45.29
60240;BME280;46102;39.012;-7.064;2023-08-24T05:43:43;98221.41;;;24.81;44.97
60240;BME280;46102;39.012;-7.064;2023-08-24T05:45:45;98226.69;;;24.76;45.38
60240;BME280;46102;39.012;-7.064;2023-08-24T05:47:47;98227.06;;;24.78;45.42
60240;BME280;46102;39.012;-7.064;2023-08-24T05:49:48;98221.88;;;24.76;45.39
60240;BME280;46102;39.012;-7.064;2023-08-24T05:51:52;98213.00;;;24.81;45.23
60240;BME280;46102;39.012;-7.064;2023-08-24T05:53:53;98221.75;;;24.87;45.26
60240;BME280;46102;39.012;-7.064;2023-08-24T05:55:59;98225.78;;;24.86;45.32
60240;BME280;46102;39.012;-7.064;2023-08-24T05:57:59;98223.41;;;24.81;45.61
60240;BME280;46102;39.012;-7.064;2023-08-24T06:00:00;98224.59;;;24.83;45.70
60240;BME280;46102;39.012;-7.064;2023-08-24T06:02:02;98227.06;;;24.78;45.67
60240;BME280;46102;39.012;-7.064;2023-08-24T06:04:04;98227.50;;;24.76;45.95
60240;BME280;46102;39.012;-7.064;2023-08-24T06:06:05;98237.13;;;24.75;45.83
60240;BME280;46102;39.012;-7.064;2023-08-24T06:08:06;98233.06;;;24.80;46.07
60240;BME280;46102;39.012;-7.064;2023-08-24T06:10:07;98237.91;;;24.76;46.35
60240;BME280;46102;39.012;-7.064;2023-08-24T06:12:08;98236.25;;;24.82;45.99
60240;BME280;46102;39.012;-7.064;2023-08-24T06:14:09;98234.97;;;24.86;46.24
60240;BME280;46102;39.012;-7.064;2023-08-24T06:16:10;98234.19;;;24.86;46.00
60240;BME280;46102;39.012;-7.064;2023-08-24T06:18:11;98234.59;;;24.84;46.01
60240;BME280;46102;39.012;-7.064;2023-08-24T06:20:12;98238.97;;;24.85;46.14
60240;BME280;46102;39.012;-7.064;2023-08-24T06:22:13;98235.75;;;24.87;46.19
60240;BME280;46102;39.012;-7.064;2023-08-24T06:24:14;98241.34;;;24.90;46.46
60240;BME280;46102;39.012;-7.064;2023-08-24T06:26:15;98236.91;;;24.93;46.10
60240;BME280;46102;39.012;-7.064;2023-08-24T06:28:15;98232.94;;;24.90;46.54
60240;BME280;46102;39.012;-7.064;2023-08-24T06:30:16;98231.72;;;24.88;46.16
60240;BME280;46102;39.012;-7.064;2023-08-24T06:32:17;98227.72;;;24.89;45.60
60240;BME280;46102;39.012;-7.064;2023-08-24T06:34:18;98248.91;;;24.93;45.89
60240;BME280;46102;39.012;-7.064;2023-08-24T06:36:18;98245.22;;;25.00;44.98
60240;BME280;46102;39.012;-7.064;2023-08-24T06:38:19;98248.00;;;25.00;45.29
60240;BME280;46102;39.012;-7.064;2023-08-24T06:40:20;98253.16;;;25.05;45.17
60240;BME280;46102;39.012;-7.064;2023-08-24T06:42:21;98254.41;;;25.01;45.36
60240;BME280;46102;39.012;-7.064;2023-08-24T06:44:22;98255.94;;;25.05;44.99
60240;BME280;46102;39.012;-7.064;2023-08-24T06:46:23;98260.69;;;25.12;44.93
60240;BME280;46102;39.012;-7.064;2023-08-24T06:48:23;98256.59;;;25.20;44.94
60240;BME280;46102;39.012;-7.064;2023-08-24T06:50:24;98262.09;;;25.27;44.39
60240;BME280;46102;39.012;-7.064;2023-08-24T06:52:25;98266.44;;;25.32;44.21
60240;BME280;46102;39.012;-7.064;2023-08-24T06:54:26;98265.13;;;25.40;44.17
60240;BME280;46102;39.012;-7.064;2023-08-24T06:56:27;98263.00;;;25.48;44.14
60240;BME280;46102;39.012;-7.064;2023-08-24T06:58:28;98262.88;;;25.55;43.92
60240;BME280;46102;39.012;-7.064;2023-08-24T07:00:29;98264.84;;;25.58;43.72
60240;BME280;46102;39.012;-7.064;2023-08-24T07:02:29;98269.91;;;25.67;43.52
60240;BME280;46102;39.012;-7.064;2023-08-24T07:04:30;98276.59;;;25.76;43.47
60240;BME280;46102;39.012;-7.064;2023-08-24T07:06:33;98276.84;;;25.86;42.99
60240;BME280;46102;39.012;-7.064;2023-08-24T07:08:34;98274.25;;;25.99;42.98
60240;BME280;46102;39.012;-7.064;2023-08-24T07:10:36;98278.00;;;26.12;42.16
60240;BME280;46102;39.012;-7.064;2023-08-24T07:12:37;98282.28;;;26.20;42.24
60240;BME280;46102;39.012;-7.064;2023-08-24T07:14:40;98277.34;;;26.28;42.26
60240;BME280;46102;39.012;-7.064;2023-08-24T07:16:40;98278.75;;;26.40;41.93
60240;BME280;46102;39.012;-7.064;2023-08-24T07:18:41;98270.88;;;26.51;41.49
60240;BME280;46102;39.012;-7.064;2023-08-24T07:20:42;98279.16;;;26.62;41.31
60240;BME280;46102;39.012;-7.064;2023-08-24T07:22:43;98283.75;;;26.72;41.46
60240;BME280;46102;39.012;-7.064;2023-08-24T07:24:43;98284.44;;;26.79;40.51
60240;BME280;46102;39.012;-7.064;2023-08-24T07:26:45;98283.81;;;26.88;40.38
60240;BME280;46102;39.012;-7.064;2023-08-24T07:28:46;98285.91;;;27.04;40.25
60240;BME280;46102;39.012;-7.064;2023-08-24T07:30:47;98279.63;;;27.16;39.87
60240;BME280;46102;39.012;-7.064;2023-08-24T07:32:47;98285.91;;;27.24;39.48
60240;BME280;46102;39.012;-7.064;2023-08-24T07:34:48;98288.13;;;27.33;39.54
60240;BME280;46102;39.012;-7.064;2023-08-24T07:36:49;98294.84;;;27.39;39.33
60240;BME280;46102;39.012;-7.064;2023-08-24T07:38:50;98288.16;;;27.49;39.10
60240;BME280;46102;39.012;-7.064;2023-08-24T07:40:53;98283.59;;;27.55;39.25
60240;BME280;46102;39.012;-7.064;2023-08-24T07:42:54;98292.59;;;27.67;38.92
60240;BME280;46102;39.012;-7.064;2023-08-24T07:44:56;98295.00;;;27.85;38.85
60240;BME280;46102;39.012;-7.064;2023-08-24T07:46:57;98294.13;;;27.88;38.68
60240;BME280;46102;39.012;-7.064;2023-08-24T07:48:58;98292.47;;;27.90;38.56
60240;BME280;46102;39.012;-7.064;2023-08-24T07:50:59;98292.47;;;27.90;38.87
60240;BME280;46102;39.012;-7.064;2023-08-24T07:52:59;98303.44;;;28.01;38.88
60240;BME280;46102;39.012;-7.064;2023-08-24T07:55:00;98298.78;;;28.11;38.88
60240;BME280;46102;39.012;-7.064;2023-08-24T07:57:05;98299.84;;;28.17;38.44
60240;BME280;46102;39.012;-7.064;2023-08-24T07:59:06;98298.06;;;28.23;38.85
60240;BME280;46102;39.012;-7.064;2023-08-24T08:01:07;98299.03;;;28.33;38.39
60240;BME280;46102;39.012;-7.064;2023-08-24T08:03:08;98305.97;;;28.44;38.06
60240;BME280;46102;39.012;-7.064;2023-08-24T08:05:09;98304.09;;;28.54;37.41
60240;BME280;46102;39.012;-7.064;2023-08-24T08:07:12;98311.38;;;28.68;37.30
60240;BME280;46102;39.012;-7.064;2023-08-24T08:09:13;98309.53;;;28.78;37.31
60240;BME280;46102;39.012;-7.064;2023-08-24T08:11:14;98310.09;;;28.85;36.81
60240;BME280;46102;39.012;-7.064;2023-08-24T08:13:15;98310.84;;;29.02;37.02
60240;BME280;46102;39.012;-7.064;2023-08-24T08:15:15;98308.28;;;29.08;36.75
60240;BME280;46102;39.012;-7.064;2023-08-24T08:17:16;98309.66;;;29.16;37.17
60240;BME280;46102;39.012;-7.064;2023-08-24T08:19:17;98317.69;;;29.31;36.61
60240;BME280;46102;39.012;-7.064;2023-08-24T08:21:20;98315.56;;;29.47;36.50
60240;BME280;46102;39.012;-7.064;2023-08-24T08:23:20;98306.84;;;29.67;36.10
60240;BME280;46102;39.012;-7.064;2023-08-24T08:25:21;98312.53;;;29.80;36.16
60240;BME280;46102;39.012;-7.064;2023-08-24T08:27:23;98305.63;;;29.94;36.05
60240;BME280;46102;39.012;-7.064;2023-08-24T08:29:24;98316.22;;;30.16;35.26
60240;BME280;46102;39.012;-7.064;2023-08-24T08:31:24;98302.75;;;30.33;34.89
60240;BME280;46102;39.012;-7.064;2023-08-24T08:33:25;98303.16;;;30.44;35.08
60240;BME280;46102;39.012;-7.064;2023-08-24T08:35:26;98299.84;;;30.58;34.72
60240;BME280;46102;39.012;-7.064;2023-08-24T08:37:27;98300.56;;;30.71;34.42
60240;BME280;46102;39.012;-7.064;2023-08-24T08:39:28;98296.56;;;30.82;34.01
60240;BME280;46102;39.012;-7.064;2023-08-24T08:41:33;98301.75;;;30.83;32.99
60240;BME280;46102;39.012;-7.064;2023-08-24T08:43:38;98310.13;;;30.87;33.85
60240;BME280;46102;39.012;-7.064;2023-08-24T08:45:39;98309.41;;;30.96;33.38
60240;BME280;46102;39.012;-7.064;2023-08-24T08:47:40;98312.63;;;31.07;33.46
60240;BME280;46102;39.012;-7.064;2023-08-24T08:49:43;98312.56;;;31.20;32.91
60240;BME280;46102;39.012;-7.064;2023-08-24T08:51:44;98316.19;;;31.42;31.81
60240;BME280;46102;39.012;-7.064;2023-08-24T08:53:44;98310.22;;;31.49;31.57
60240;BME280;46102;39.012;-7.064;2023-08-24T08:55:45;98310.59;;;31.61;31.98
60240;BME280;46102;39.012;-7.064;2023-08-24T08:57:48;98312.06;;;31.74;31.55
60240;BME280;46102;39.012;-7.064;2023-08-24T08:59:50;98312.91;;;31.84;31.22
60240;BME280;46102;39.012;-7.064;2023-08-24T09:01:52;98312.19;;;32.02;31.54
60240;BME280;46102;39.012;-7.064;2023-08-24T09:03:54;98316.97;;;32.24;31.32
60240;BME280;46102;39.012;-7.064;2023-08-24T09:05:56;98309.09;;;32.46;30.47
60240;BME280;46102;39.012;-7.064;2023-08-24T09:07:57;98316.22;;;32.60;29.69
60240;BME280;46102;39.012;-7.064;2023-08-24T09:09:59;98317.03;;;32.70;28.94
60240;BME280;46102;39.012;-7.064;2023-08-24T09:12:01;98311.19;;;32.83;28.98
60240;BME280;46102;39.012;-7.064;2023-08-24T09:14:02;98319.72;;;33.01;28.62
60240;BME280;46102;39.012;-7.064;2023-08-24T09:16:05;98320.19;;;33.09;28.54
60240;BME280;46102;39.012;-7.064;2023-08-24T09:18:06;98312.09;;;33.16;28.89
60240;BME280;46102;39.012;-7.064;2023-08-24T09:20:07;98315.72;;;33.35;28.83
60240;BME280;46102;39.012;-7.064;2023-08-24T09:22:10;98317.50;;;33.57;28.19
60240;BME280;46102;39.012;-7.064;2023-08-24T09:24:11;98317.78;;;33.77;28.13
60240;BME280;46102;39.012;-7.064;2023-08-24T09:26:13;98322.41;;;33.99;27.44
60240;BME280;46102;39.012;-7.064;2023-08-24T09:28:14;98326.16;;;34.14;27.77
60240;BME280;46102;39.012;-7.064;2023-08-24T09:30:22;98320.88;;;34.22;27.05
60240;BME280;46102;39.012;-7.064;2023-08-24T09:32:30;98326.34;;;34.35;26.48
60240;BME280;46102;39.012;-7.064;2023-08-24T09:34:32;98324.03;;;34.48;26.75
60240;BME280;46102;39.012;-7.064;2023-08-24T09:36:33;98315.25;;;34.61;26.29
60240;BME280;46102;39.012;-7.064;2023-08-24T09:38:34;98314.91;;;34.83;26.29
60240;BME280;46102;39.012;-7.064;2023-08-24T09:40:36;98316.50;;;34.99;26.05
60240;BME280;46102;39.012;-7.064;2023-08-24T09:42:41;98315.94;;;35.10;25.21
60240;BME280;46102;39.012;-7.064;2023-08-24T09:44:43;98316.66;;;35.19;25.31
60240;BME280;46102;39.012;-7.064;2023-08-24T09:46:46;98320.69;;;35.28;25.56
60240;BME280;46102;39.012;-7.064;2023-08-24T09:48:53;98327.47;;;35.30;25.23
60240;BME280;46102;39.012;-7.064;2023-08-24T09:50:55;98326.00;;;35.35;25.06
60240;BME280;46102;39.012;-7.064;2023-08-24T09:52:58;98331.03;;;35.40;24.66
60240;BME280;46102;39.012;-7.064;2023-08-24T09:55:04;98326.69;;;35.44;25.15
60240;BME280;46102;39.012;-7.064;2023-08-24T09:57:09;98327.94;;;35.58;24.93
60240;BME280;46102;39.012;-7.064;2023-08-24T09:59:12;98330.63;;;35.62;24.90
60240;BME280;46102;39.012;-7.064;2023-08-24T10:01:15;98333.53;;;35.82;24.55
60240;BME280;46102;39.012;-7.064;2023-08-24T10:03:21;98327.22;;;35.93;24.28
60240;BME280;46102;39.012;-7.064;2023-08-24T10:05:26;98328.09;;;36.14;24.04
60240;BME280;46102;39.012;-7.064;2023-08-24T10:07:28;98322.09;;;36.33;23.63
60240;BME280;46102;39.012;-7.064;2023-08-24T10:09:44;98328.66;;;36.39;23.84
60240;BME280;46102;39.012;-7.064;2023-08-24T10:11:50;98325.09;;;36.44;23.67
60240;BME280;46102;39.012;-7.064;2023-08-24T10:14:03;98321.50;;;36.64;23.57
60240;BME280;46102;39.012;-7.064;2023-08-24T10:16:08;98324.03;;;36.82;23.34
60240;BME280;46102;39.012;-7.064;2023-08-24T10:18:10;98319.72;;;36.93;23.28
60240;BME280;46102;39.012;-7.064;2023-08-24T10:20:11;98318.84;;;37.07;23.18
60240;BME280;46102;39.012;-7.064;2023-08-24T10:22:12;98325.00;;;37.26;22.79
60240;BME280;46102;39.012;-7.064;2023-08-24T10:24:15;98320.97;;;37.38;23.05
60240;BME280;46102;39.012;-7.064;2023-08-24T10:26:16;98320.84;;;37.53;22.88
60240;BME280;46102;39.012;-7.064;2023-08-24T10:28:19;98322.81;;;37.67;22.20
60240;BME280;46102;39.012;-7.064;2023-08-24T10:30:21;98312.22;;;37.79;22.41
60240;BME280;46102;39.012;-7.064;2023-08-24T10:32:23;98323.47;;;37.88;21.93
60240;BME280;46102;39.012;-7.064;2023-08-24T10:34:24;98313.13;;;37.97;21.83
60240;BME280;46102;39.012;-7.064;2023-08-24T10:36:25;98320.69;;;38.00;21.48
60240;BME280;46102;39.012;-7.064;2023-08-24T10:38:28;98311.66;;;38.07;21.68
60240;BME280;46102;39.012;-7.064;2023-08-24T10:40:36;98312.97;;;38.11;21.23